sensor_id;sensor_type;location;lat;lon;timestamp;temperature;humidity
2435;DHT22;1228;51.022;6.764;2023-07-31T00:00:41;16.20;99.90
2435;DHT22;1228;51.022;6.764;2023-07-31T00:03:06;16.30;99.90
2435;DHT22;1228;51.022;6.764;2023-07-31T00:05:32;16.30;99.90
2435;DHT22;1228;51.022;6.764;2023-07-31T00:07:57;16.30;99.90
2435;DHT22;1228;51.022;6.764;2023-07-31T00:10:23;16.30;99.90
2435;DHT22;1228;51.022;6.764;2023-07-31T00:12:49;16.30;99.90
2435;DHT22;1228;51.022;6.764;2023-07-31T00:15:15;16.30;99.90
2435;DHT22;1228;51.022;6.764;2023-07-31T00:17:40;16.30;99.90
2435;DHT22;1228;51.022;6.764;2023-07-31T00:20:06;16.30;99.90
2435;DHT22;1228;51.022;6.764;2023-07-31T00:22:32;16.30;99.90
2435;DHT22;1228;51.022;6.764;2023-07-31T00:24:58;16.30;99.90
2435;DHT22;1228;51.022;6.764;2023-07-31T00:27:25;16.20;99.90
2435;DHT22;1228;51.022;6.764;2023-07-31T00:29:50;16.20;99.90
2435;DHT22;1228;51.022;6.764;2023-07-31T00:32:16;16.20;99.90
2435;DHT22;1228;51.022;6.764;2023-07-31T00:34:41;16.20;99.90
2435;DHT22;1228;51.022;6.764;2023-07-31T00:37:07;16.20;99.90
2435;DHT22;1228;51.022;6.764;2023-07-31T00:39:34;16.20;99.90
2435;DHT22;1228;51.022;6.764;2023-07-31T00:42:00;16.20;99.90
2435;DHT22;1228;51.022;6.764;2023-07-31T00:44:26;16.20;99.90
2435;DHT22;1228;51.022;6.764;2023-07-31T00:46:51;16.30;99.90
2435;DHT22;1228;51.022;6.764;2023-07-31T00:49:17;16.30;99.90
2435;DHT22;1228;51.022;6.764;2023-07-31T00:51:43;16.30;99.90
2435;DHT22;1228;51.022;6.764;2023-07-31T00:54:09;16.40;99.90
2435;DHT22;1228;51.022;6.764;2023-07-31T00:56:36;16.40;99.90
2435;DHT22;1228;51.022;6.764;2023-07-31T00:59:03;16.40;99.90
2435;DHT22;1228;51.022;6.764;2023-07-31T01:01:28;16.50;99.90
2435;DHT22;1228;51.022;6.764;2023-07-31T01:03:54;16.50;99.90
2435;DHT22;1228;51.022;6.764;2023-07-31T01:09:00;16.50;99.90
2435;DHT22;1228;51.022;6.764;2023-07-31T01:11:30;16.60;99.90
2435;DHT22;1228;51.022;6.764;2023-07-31T01:13:57;16.60;99.90
2435;DHT22;1228;51.022;6.764;2023-07-31T01:16:23;16.60;99.90
2435;DHT22;1228;51.022;6.764;2023-07-31T01:18:48;16.60;99.90
2435;DHT22;1228;51.022;6.764;2023-07-31T01:24:33;16.70;99.90
2435;DHT22;1228;51.022;6.764;2023-07-31T01:27:05;16.70;99.90
2435;DHT22;1228;51.022;6.764;2023-07-31T01:29:49;16.70;99.90
2435;DHT22;1228;51.022;6.764;2023-07-31T01:32:19;16.70;99.90
2435;DHT22;1228;51.022;6.764;2023-07-31T01:34:46;16.80;99.90
2435;DHT22;1228;51.022;6.764;2023-07-31T01:37:12;16.80;99.90
2435;DHT22;1228;51.022;6.764;2023-07-31T01:39:37;16.90;99.90
2435;DHT22;1228;51.022;6.764;2023-07-31T01:42:03;16.90;99.90
2435;DHT22;1228;51.022;6.764;2023-07-31T01:44:29;16.90;99.90
2435;DHT22;1228;51.022;6.764;2023-07-31T01:46:55;17.00;99.90
2435;DHT22;1228;51.022;6.764;2023-07-31T01:49:20;17.00;99.90
2435;DHT22;1228;51.022;6.764;2023-07-31T01:51:46;17.00;99.90
2435;DHT22;1228;51.022;6.764;2023-07-31T01:54:11;17.00;99.90
2435;DHT22;1228;51.022;6.764;2023-07-31T01:56:37;17.00;99.90
2435;DHT22;1228;51.022;6.764;2023-07-31T01:59:03;17.00;99.90
2435;DHT22;1228;51.022;6.764;2023-07-31T02:01:28;17.10;99.90
2435;DHT22;1228;51.022;6.764;2023-07-31T02:03:54;17.10;99.90
2435;DHT22;1228;51.022;6.764;2023-07-31T02:06:19;17.10;99.90
2435;DHT22;1228;51.022;6.764;2023-07-31T02:08:45;17.10;99.90
2435;DHT22;1228;51.022;6.764;2023-07-31T02:11:11;17.10;99.90
2435;DHT22;1228;51.022;6.764;2023-07-31T02:13:36;17.20;99.90
2435;DHT22;1228;51.022;6.764;2023-07-31T02:16:02;17.20;99.90
2435;DHT22;1228;51.022;6.764;2023-07-31T02:18:27;17.20;99.90
2435;DHT22;1228;51.022;6.764;2023-07-31T02:20:53;17.20;99.90
2435;DHT22;1228;51.022;6.764;2023-07-31T02:23:19;17.20;99.90
2435;DHT22;1228;51.022;6.764;2023-07-31T02:25:45;17.20;99.90
2435;DHT22;1228;51.022;6.764;2023-07-31T02:28:11;17.30;99.90
2435;DHT22;1228;51.022;6.764;2023-07-31T02:30:37;17.30;99.90
2435;DHT22;1228;51.022;6.764;2023-07-31T02:33:03;17.30;99.90
2435;DHT22;1228;51.022;6.764;2023-07-31T02:35:28;17.30;99.90
2435;DHT22;1228;51.022;6.764;2023-07-31T02:37:54;17.30;99.90
2435;DHT22;1228;51.022;6.764;2023-07-31T02:40:20;17.30;99.90
2435;DHT22;1228;51.022;6.764;2023-07-31T02:42:45;17.30;99.90
2435;DHT22;1228;51.022;6.764;2023-07-31T02:45:11;17.30;99.90
2435;DHT22;1228;51.022;6.764;2023-07-31T02:47:36;17.30;99.90
2435;DHT22;1228;51.022;6.764;2023-07-31T02:50:05;17.30;99.90
2435;DHT22;1228;51.022;6.764;2023-07-31T02:52:31;17.30;99.90
2435;DHT22;1228;51.022;6.764;2023-07-31T02:54:57;17.40;99.90
2435;DHT22;1228;51.022;6.764;2023-07-31T02:57:23;17.30;99.90
2435;DHT22;1228;51.022;6.764;2023-07-31T02:59:49;17.40;99.90
2435;DHT22;1228;51.022;6.764;2023-07-31T03:02:14;17.40;99.90
2435;DHT22;1228;51.022;6.764;2023-07-31T03:04:40;17.40;99.90
2435;DHT22;1228;51.022;6.764;2023-07-31T03:07:06;17.40;99.90
2435;DHT22;1228;51.022;6.764;2023-07-31T03:09:31;17.50;99.90
2435;DHT22;1228;51.022;6.764;2023-07-31T03:11:57;17.50;99.90
2435;DHT22;1228;51.022;6.764;2023-07-31T03:14:23;17.50;99.90
2435;DHT22;1228;51.022;6.764;2023-07-31T03:16:49;17.50;99.90
2435;DHT22;1228;51.022;6.764;2023-07-31T03:19:14;17.60;99.90
2435;DHT22;1228;51.022;6.764;2023-07-31T03:21:40;17.50;99.90
2435;DHT22;1228;51.022;6.764;2023-07-31T03:24:06;17.50;99.90
2435;DHT22;1228;51.022;6.764;2023-07-31T03:26:32;17.50;99.90
2435;DHT22;1228;51.022;6.764;2023-07-31T03:28:58;17.50;99.90
2435;DHT22;1228;51.022;6.764;2023-07-31T03:31:23;17.50;99.90
2435;DHT22;1228;51.022;6.764;2023-07-31T03:33:49;17.50;99.90
2435;DHT22;1228;51.022;6.764;2023-07-31T03:36:15;17.50;99.90
2435;DHT22;1228;51.022;6.764;2023-07-31T03:38:40;17.50;99.90
2435;DHT22;1228;51.022;6.764;2023-07-31T03:41:06;17.40;99.90
2435;DHT22;1228;51.022;6.764;2023-07-31T03:43:32;17.40;99.90
2435;DHT22;1228;51.022;6.764;2023-07-31T03:46:00;17.30;99.90
2435;DHT22;1228;51.022;6.764;2023-07-31T03:48:26;17.30;99.90
2435;DHT22;1228;51.022;6.764;2023-07-31T03:50:52;17.30;99.90
2435;DHT22;1228;51.022;6.764;2023-07-31T03:53:17;17.30;99.90
2435;DHT22;1228;51.022;6.764;2023-07-31T03:55:43;17.40;99.90
2435;DHT22;1228;51.022;6.764;2023-07-31T03:58:09;17.40;99.90
2435;DHT22;1228;51.022;6.764;2023-07-31T04:00:34;17.40;99.90
2435;DHT22;1228;51.022;6.764;2023-07-31T04:03:00;17.40;99.90
2435;DHT22;1228;51.022;6.764;2023-07-31T04:05:25;17.40;99.90
2435;DHT22;1228;51.022;6.764;2023-07-31T04:07:51;17.40;99.90
2435;DHT22;1228;51.022;6.764;2023-07-31T04:10:17;17.40;99.90
2435;DHT22;1228;51.022;6.764;2023-07-31T04:12:42;17.50;99.90
2435;DHT22;1228;51.022;6.764;2023-07-31T04:15:08;17.50;99.90
2435;DHT22;1228;51.022;6.764;2023-07-31T04:17:34;17.50;99.90
2435;DHT22;1228;51.022;6.764;2023-07-31T04:19:59;17.40;99.90
2435;DHT22;1228;51.022;6.764;2023-07-31T04:22:25;17.50;99.90
2435;DHT22;1228;51.022;6.764;2023-07-31T04:24:51;17.50;99.90
2435;DHT22;1228;51.022;6.764;2023-07-31T04:27:16;17.50;99.90
2435;DHT22;1228;51.022;6.764;2023-07-31T04:29:42;17.50;99.90
2435;DHT22;1228;51.022;6.764;2023-07-31T04:32:09;17.60;99.90
2435;DHT22;1228;51.022;6.764;2023-07-31T04:34:35;17.60;99.90
2435;DHT22;1228;51.022;6.764;2023-07-31T04:37:00;17.60;99.90
2435;DHT22;1228;51.022;6.764;2023-07-31T04:39:26;17.60;99.90
2435;DHT22;1228;51.022;6.764;2023-07-31T04:41:51;17.60;99.90
2435;DHT22;1228;51.022;6.764;2023-07-31T04:44:17;17.60;99.90
2435;DHT22;1228;51.022;6.764;2023-07-31T04:46:43;17.60;99.90
2435;DHT22;1228;51.022;6.764;2023-07-31T04:49:08;17.70;99.90
2435;DHT22;1228;51.022;6.764;2023-07-31T04:51:34;17.60;99.90
2435;DHT22;1228;51.022;6.764;2023-07-31T04:53:59;17.70;99.90
2435;DHT22;1228;51.022;6.764;2023-07-31T04:56:25;17.70;99.90
2435;DHT22;1228;51.022;6.764;2023-07-31T04:58:51;17.60;99.90
2435;DHT22;1228;51.022;6.764;2023-07-31T05:01:16;17.60;99.90
2435;DHT22;1228;51.022;6.764;2023-07-31T05:03:42;17.60;99.90
2435;DHT22;1228;51.022;6.764;2023-07-31T05:06:07;17.60;99.90
2435;DHT22;1228;51.022;6.764;2023-07-31T05:08:33;17.60;99.90
2435;DHT22;1228;51.022;6.764;2023-07-31T05:10:59;17.60;99.90
2435;DHT22;1228;51.022;6.764;2023-07-31T05:13:24;17.60;99.90
2435;DHT22;1228;51.022;6.764;2023-07-31T05:15:50;17.60;99.90
2435;DHT22;1228;51.022;6.764;2023-07-31T05:18:15;17.70;99.90
2435;DHT22;1228;51.022;6.764;2023-07-31T05:20:41;17.70;99.90
2435;DHT22;1228;51.022;6.764;2023-07-31T05:23:07;17.80;99.90
2435;DHT22;1228;51.022;6.764;2023-07-31T05:25:32;17.80;99.90
2435;DHT22;1228;51.022;6.764;2023-07-31T05:27:58;17.80;99.90
2435;DHT22;1228;51.022;6.764;2023-07-31T05:30:23;17.90;99.90
2435;DHT22;1228;51.022;6.764;2023-07-31T05:32:49;17.90;99.90
2435;DHT22;1228;51.022;6.764;2023-07-31T05:35:15;18.00;99.90
2435;DHT22;1228;51.022;6.764;2023-07-31T05:37:40;18.00;99.90
2435;DHT22;1228;51.022;6.764;2023-07-31T05:40:06;18.00;99.90
2435;DHT22;1228;51.022;6.764;2023-07-31T05:42:32;18.00;99.90
2435;DHT22;1228;51.022;6.764;2023-07-31T05:44:58;18.00;99.90
2435;DHT22;1228;51.022;6.764;2023-07-31T05:47:23;18.00;99.90
2435;DHT22;1228;51.022;6.764;2023-07-31T05:49:49;18.00;99.90
2435;DHT22;1228;51.022;6.764;2023-07-31T05:52:18;18.00;99.90
2435;DHT22;1228;51.022;6.764;2023-07-31T05:54:43;18.00;99.90
2435;DHT22;1228;51.022;6.764;2023-07-31T05:57:09;18.00;99.90
2435;DHT22;1228;51.022;6.764;2023-07-31T05:59:35;17.90;99.90
2435;DHT22;1228;51.022;6.764;2023-07-31T06:02:00;17.80;99.90
2435;DHT22;1228;51.022;6.764;2023-07-31T06:04:26;17.70;99.90
2435;DHT22;1228;51.022;6.764;2023-07-31T06:06:52;17.60;99.90
2435;DHT22;1228;51.022;6.764;2023-07-31T06:09:17;17.40;99.90
2435;DHT22;1228;51.022;6.764;2023-07-31T06:11:43;17.30;99.90
2435;DHT22;1228;51.022;6.764;2023-07-31T06:14:09;17.30;99.90
2435;DHT22;1228;51.022;6.764;2023-07-31T06:16:34;17.20;99.90
2435;DHT22;1228;51.022;6.764;2023-07-31T06:19:00;17.20;99.90
2435;DHT22;1228;51.022;6.764;2023-07-31T06:21:26;17.10;99.90
2435;DHT22;1228;51.022;6.764;2023-07-31T06:23:52;17.10;99.90
2435;DHT22;1228;51.022;6.764;2023-07-31T06:26:17;17.10;99.90
2435;DHT22;1228;51.022;6.764;2023-07-31T06:28:43;17.20;99.90
2435;DHT22;1228;51.022;6.764;2023-07-31T06:31:09;17.20;99.90
2435;DHT22;1228;51.022;6.764;2023-07-31T06:33:35;17.20;99.90
2435;DHT22;1228;51.022;6.764;2023-07-31T06:36:00;17.20;99.90
2435;DHT22;1228;51.022;6.764;2023-07-31T06:38:26;17.30;99.90
2435;DHT22;1228;51.022;6.764;2023-07-31T06:40:52;17.30;99.90
2435;DHT22;1228;51.022;6.764;2023-07-31T06:43:18;17.30;99.90
2435;DHT22;1228;51.022;6.764;2023-07-31T06:45:43;17.40;99.90
2435;DHT22;1228;51.022;6.764;2023-07-31T06:48:09;17.50;99.90
2435;DHT22;1228;51.022;6.764;2023-07-31T06:50:35;17.60;99.90
2435;DHT22;1228;51.022;6.764;2023-07-31T06:53:01;17.70;99.90
2435;DHT22;1228;51.022;6.764;2023-07-31T06:55:26;17.70;99.90
2435;DHT22;1228;51.022;6.764;2023-07-31T06:57:54;17.80;99.90
2435;DHT22;1228;51.022;6.764;2023-07-31T07:00:21;17.90;99.90
2435;DHT22;1228;51.022;6.764;2023-07-31T07:02:48;17.90;99.90
2435;DHT22;1228;51.022;6.764;2023-07-31T07:05:14;18.00;99.90
2435;DHT22;1228;51.022;6.764;2023-07-31T07:07:40;18.10;99.90
2435;DHT22;1228;51.022;6.764;2023-07-31T07:10:07;18.10;99.90
2435;DHT22;1228;51.022;6.764;2023-07-31T07:12:33;18.20;99.90
2435;DHT22;1228;51.022;6.764;2023-07-31T07:14:59;18.20;99.90
2435;DHT22;1228;51.022;6.764;2023-07-31T07:17:26;18.30;99.90
2435;DHT22;1228;51.022;6.764;2023-07-31T07:19:52;18.30;99.90
2435;DHT22;1228;51.022;6.764;2023-07-31T07:22:18;18.40;99.90
2435;DHT22;1228;51.022;6.764;2023-07-31T07:24:44;18.30;99.90
2435;DHT22;1228;51.022;6.764;2023-07-31T07:27:10;18.20;99.90
2435;DHT22;1228;51.022;6.764;2023-07-31T07:29:35;18.10;99.90
2435;DHT22;1228;51.022;6.764;2023-07-31T07:32:01;18.00;99.90
2435;DHT22;1228;51.022;6.764;2023-07-31T07:34:27;17.90;99.90
2435;DHT22;1228;51.022;6.764;2023-07-31T07:36:53;17.80;99.90
2435;DHT22;1228;51.022;6.764;2023-07-31T07:39:19;17.80;99.90
2435;DHT22;1228;51.022;6.764;2023-07-31T07:41:44;17.70;99.90
2435;DHT22;1228;51.022;6.764;2023-07-31T07:44:10;17.70;99.90
2435;DHT22;1228;51.022;6.764;2023-07-31T07:46:35;17.60;99.90
2435;DHT22;1228;51.022;6.764;2023-07-31T07:49:01;17.50;99.90
2435;DHT22;1228;51.022;6.764;2023-07-31T07:51:27;17.50;99.90
2435;DHT22;1228;51.022;6.764;2023-07-31T07:53:52;17.50;99.90
2435;DHT22;1228;51.022;6.764;2023-07-31T07:56:18;17.50;99.90
2435;DHT22;1228;51.022;6.764;2023-07-31T07:58:43;17.50;99.90
2435;DHT22;1228;51.022;6.764;2023-07-31T08:01:09;17.40;99.90
2435;DHT22;1228;51.022;6.764;2023-07-31T08:03:34;17.40;99.90
2435;DHT22;1228;51.022;6.764;2023-07-31T08:06:01;17.30;99.90
2435;DHT22;1228;51.022;6.764;2023-07-31T08:08:27;17.30;99.90
2435;DHT22;1228;51.022;6.764;2023-07-31T08:10:53;17.20;99.90
2435;DHT22;1228;51.022;6.764;2023-07-31T08:13:19;17.20;99.90
2435;DHT22;1228;51.022;6.764;2023-07-31T08:15:44;17.20;99.90
2435;DHT22;1228;51.022;6.764;2023-07-31T08:18:10;17.30;99.90
2435;DHT22;1228;51.022;6.764;2023-07-31T08:20:37;17.40;99.90
2435;DHT22;1228;51.022;6.764;2023-07-31T08:23:03;17.40;99.90
2435;DHT22;1228;51.022;6.764;2023-07-31T08:25:28;17.50;99.90
2435;DHT22;1228;51.022;6.764;2023-07-31T08:27:54;17.50;99.90
2435;DHT22;1228;51.022;6.764;2023-07-31T08:30:20;17.60;99.90
2435;DHT22;1228;51.022;6.764;2023-07-31T08:32:46;17.70;99.90
2435;DHT22;1228;51.022;6.764;2023-07-31T08:35:12;17.80;99.90
2435;DHT22;1228;51.022;6.764;2023-07-31T08:37:38;17.80;99.90
2435;DHT22;1228;51.022;6.764;2023-07-31T08:40:05;17.90;99.90
2435;DHT22;1228;51.022;6.764;2023-07-31T08:42:31;17.90;99.90
2435;DHT22;1228;51.022;6.764;2023-07-31T08:44:58;18.10;99.90
2435;DHT22;1228;51.022;6.764;2023-07-31T08:47:26;18.20;99.90
2435;DHT22;1228;51.022;6.764;2023-07-31T08:49:53;18.30;99.90
2435;DHT22;1228;51.022;6.764;2023-07-31T08:52:20;18.30;99.90
2435;DHT22;1228;51.022;6.764;2023-07-31T08:54:45;18.30;99.90
2435;DHT22;1228;51.022;6.764;2023-07-31T08:57:11;18.50;99.90
2435;DHT22;1228;51.022;6.764;2023-07-31T08:59:38;18.60;99.90
2435;DHT22;1228;51.022;6.764;2023-07-31T09:02:08;18.60;99.90
2435;DHT22;1228;51.022;6.764;2023-07-31T09:04:34;18.60;99.90
2435;DHT22;1228;51.022;6.764;2023-07-31T09:07:02;18.60;99.90
2435;DHT22;1228;51.022;6.764;2023-07-31T09:09:30;18.50;99.90
2435;DHT22;1228;51.022;6.764;2023-07-31T09:11:57;18.40;99.90
2435;DHT22;1228;51.022;6.764;2023-07-31T09:14:25;18.40;99.90
2435;DHT22;1228;51.022;6.764;2023-07-31T09:16:58;18.30;99.90
2435;DHT22;1228;51.022;6.764;2023-07-31T09:19:33;18.30;99.90
2435;DHT22;1228;51.022;6.764;2023-07-31T09:21:59;18.30;99.90
2435;DHT22;1228;51.022;6.764;2023-07-31T09:24:30;18.20;99.90
2435;DHT22;1228;51.022;6.764;2023-07-31T09:26:57;18.30;99.90
2435;DHT22;1228;51.022;6.764;2023-07-31T09:29:25;18.40;99.90
2435;DHT22;1228;51.022;6.764;2023-07-31T09:31:53;18.50;99.90
2435;DHT22;1228;51.022;6.764;2023-07-31T09:34:19;18.70;99.90
2435;DHT22;1228;51.022;6.764;2023-07-31T09:36:48;18.90;99.90
2435;DHT22;1228;51.022;6.764;2023-07-31T09:39:14;19.20;99.90
2435;DHT22;1228;51.022;6.764;2023-07-31T09:41:53;19.30;99.90
2435;DHT22;1228;51.022;6.764;2023-07-31T09:44:19;19.40;99.90
2435;DHT22;1228;51.022;6.764;2023-07-31T09:46:45;19.70;99.90
2435;DHT22;1228;51.022;6.764;2023-07-31T09:49:12;19.90;99.90
2435;DHT22;1228;51.022;6.764;2023-07-31T09:51:39;19.90;99.90
2435;DHT22;1228;51.022;6.764;2023-07-31T09:54:15;20.00;99.90
2435;DHT22;1228;51.022;6.764;2023-07-31T09:56:48;20.20;99.90
2435;DHT22;1228;51.022;6.764;2023-07-31T09:59:18;20.50;99.90
2435;DHT22;1228;51.022;6.764;2023-07-31T10:01:45;20.50;99.90
2435;DHT22;1228;51.022;6.764;2023-07-31T10:04:12;20.40;99.90
2435;DHT22;1228;51.022;6.764;2023-07-31T10:06:39;20.40;99.90
2435;DHT22;1228;51.022;6.764;2023-07-31T10:09:07;20.30;99.90
2435;DHT22;1228;51.022;6.764;2023-07-31T10:11:47;20.30;99.90
2435;DHT22;1228;51.022;6.764;2023-07-31T10:14:19;20.20;99.90
2435;DHT22;1228;51.022;6.764;2023-07-31T10:16:45;20.30;99.90
2435;DHT22;1228;51.022;6.764;2023-07-31T10:19:10;20.30;99.90
2435;DHT22;1228;51.022;6.764;2023-07-31T10:21:37;20.10;99.90
2435;DHT22;1228;51.022;6.764;2023-07-31T10:24:04;20.00;99.90
2435;DHT22;1228;51.022;6.764;2023-07-31T10:26:32;19.80;99.90
2435;DHT22;1228;51.022;6.764;2023-07-31T10:28:59;19.60;99.90
2435;DHT22;1228;51.022;6.764;2023-07-31T10:31:27;19.40;99.90
2435;DHT22;1228;51.022;6.764;2023-07-31T10:33:54;19.30;99.90
2435;DHT22;1228;51.022;6.764;2023-07-31T10:36:21;19.40;99.90
2435;DHT22;1228;51.022;6.764;2023-07-31T10:38:50;19.40;99.90
2435;DHT22;1228;51.022;6.764;2023-07-31T10:41:18;19.50;99.90
2435;DHT22;1228;51.022;6.764;2023-07-31T10:43:46;19.50;99.90
2435;DHT22;1228;51.022;6.764;2023-07-31T10:46:13;19.40;99.90
2435;DHT22;1228;51.022;6.764;2023-07-31T10:48:39;19.30;99.90
2435;DHT22;1228;51.022;6.764;2023-07-31T10:51:09;19.30;99.90
2435;DHT22;1228;51.022;6.764;2023-07-31T10:53:36;19.20;99.90
2435;DHT22;1228;51.022;6.764;2023-07-31T10:56:03;19.20;99.90
2435;DHT22;1228;51.022;6.764;2023-07-31T10:58:30;19.40;99.90
2435;DHT22;1228;51.022;6.764;2023-07-31T11:01:03;19.70;99.90
2435;DHT22;1228;51.022;6.764;2023-07-31T11:03:46;20.00;99.90
2435;DHT22;1228;51.022;6.764;2023-07-31T11:06:14;20.30;99.90
2435;DHT22;1228;51.022;6.764;2023-07-31T11:08:45;20.70;99.90
2435;DHT22;1228;51.022;6.764;2023-07-31T11:11:12;21.10;99.90
2435;DHT22;1228;51.022;6.764;2023-07-31T11:13:46;21.30;99.90
2435;DHT22;1228;51.022;6.764;2023-07-31T11:16:15;21.40;99.90
2435;DHT22;1228;51.022;6.764;2023-07-31T11:18:42;21.50;99.90
2435;DHT22;1228;51.022;6.764;2023-07-31T11:21:16;21.60;99.90
2435;DHT22;1228;51.022;6.764;2023-07-31T11:23:46;21.80;99.90
2435;DHT22;1228;51.022;6.764;2023-07-31T11:26:12;21.70;99.90
2435;DHT22;1228;51.022;6.764;2023-07-31T11:28:38;21.60;99.90
2435;DHT22;1228;51.022;6.764;2023-07-31T11:31:04;21.60;99.90
2435;DHT22;1228;51.022;6.764;2023-07-31T11:33:30;21.80;99.90
2435;DHT22;1228;51.022;6.764;2023-07-31T11:35:56;21.80;99.90
2435;DHT22;1228;51.022;6.764;2023-07-31T11:38:26;21.70;99.90
2435;DHT22;1228;51.022;6.764;2023-07-31T11:40:54;21.70;99.90
2435;DHT22;1228;51.022;6.764;2023-07-31T11:43:20;21.60;99.90
2435;DHT22;1228;51.022;6.764;2023-07-31T11:45:55;21.50;99.90
2435;DHT22;1228;51.022;6.764;2023-07-31T11:48:31;21.50;99.90
2435;DHT22;1228;51.022;6.764;2023-07-31T11:51:00;21.80;99.90
2435;DHT22;1228;51.022;6.764;2023-07-31T11:56:04;22.30;99.90
2435;DHT22;1228;51.022;6.764;2023-07-31T11:58:32;22.10;99.90
2435;DHT22;1228;51.022;6.764;2023-07-31T12:00:59;22.00;99.90
2435;DHT22;1228;51.022;6.764;2023-07-31T12:03:25;21.90;99.90
2435;DHT22;1228;51.022;6.764;2023-07-31T12:05:53;21.70;99.90
2435;DHT22;1228;51.022;6.764;2023-07-31T12:08:21;21.60;99.90
2435;DHT22;1228;51.022;6.764;2023-07-31T12:10:46;21.60;99.90
2435;DHT22;1228;51.022;6.764;2023-07-31T12:13:25;21.50;99.90
2435;DHT22;1228;51.022;6.764;2023-07-31T12:15:59;21.50;99.90
2435;DHT22;1228;51.022;6.764;2023-07-31T12:18:28;21.40;99.90
2435;DHT22;1228;51.022;6.764;2023-07-31T12:20:58;21.20;99.90
2435;DHT22;1228;51.022;6.764;2023-07-31T12:23:25;21.10;99.90
2435;DHT22;1228;51.022;6.764;2023-07-31T12:28:27;21.20;99.90
2435;DHT22;1228;51.022;6.764;2023-07-31T12:30:57;21.30;99.90
2435;DHT22;1228;51.022;6.764;2023-07-31T12:33:27;21.60;99.90
2435;DHT22;1228;51.022;6.764;2023-07-31T12:35:55;22.00;99.90
2435;DHT22;1228;51.022;6.764;2023-07-31T12:38:20;22.40;99.90
2435;DHT22;1228;51.022;6.764;2023-07-31T12:40:46;22.50;99.90
2435;DHT22;1228;51.022;6.764;2023-07-31T12:43:13;22.50;99.90
2435;DHT22;1228;51.022;6.764;2023-07-31T12:45:38;22.40;99.90
2435;DHT22;1228;51.022;6.764;2023-07-31T12:48:04;22.30;99.90
2435;DHT22;1228;51.022;6.764;2023-07-31T12:50:30;22.40;99.90
2435;DHT22;1228;51.022;6.764;2023-07-31T12:52:56;22.50;99.90
2435;DHT22;1228;51.022;6.764;2023-07-31T12:55:22;22.60;99.90
2435;DHT22;1228;51.022;6.764;2023-07-31T12:57:48;22.70;99.90
2435;DHT22;1228;51.022;6.764;2023-07-31T13:00:14;22.80;99.90
2435;DHT22;1228;51.022;6.764;2023-07-31T13:02:40;22.60;99.90
2435;DHT22;1228;51.022;6.764;2023-07-31T13:05:05;22.50;99.90
2435;DHT22;1228;51.022;6.764;2023-07-31T13:07:31;22.50;99.90
2435;DHT22;1228;51.022;6.764;2023-07-31T13:09:57;22.60;99.90
2435;DHT22;1228;51.022;6.764;2023-07-31T13:12:23;22.50;99.90
2435;DHT22;1228;51.022;6.764;2023-07-31T13:14:48;22.50;99.90
2435;DHT22;1228;51.022;6.764;2023-07-31T13:17:14;22.50;99.90
2435;DHT22;1228;51.022;6.764;2023-07-31T13:19:39;22.50;99.90
2435;DHT22;1228;51.022;6.764;2023-07-31T13:22:05;22.50;99.90
2435;DHT22;1228;51.022;6.764;2023-07-31T13:24:30;22.40;99.90
2435;DHT22;1228;51.022;6.764;2023-07-31T13:29:24;22.40;99.90
2435;DHT22;1228;51.022;6.764;2023-07-31T13:31:49;22.50;99.90
2435;DHT22;1228;51.022;6.764;2023-07-31T13:34:15;22.70;99.90
2435;DHT22;1228;51.022;6.764;2023-07-31T13:36:41;23.00;99.90
2435;DHT22;1228;51.022;6.764;2023-07-31T13:39:07;23.20;99.90
2435;DHT22;1228;51.022;6.764;2023-07-31T13:41:33;23.10;99.90
2435;DHT22;1228;51.022;6.764;2023-07-31T13:43:58;23.00;99.90
2435;DHT22;1228;51.022;6.764;2023-07-31T13:46:24;23.10;99.90
2435;DHT22;1228;51.022;6.764;2023-07-31T13:48:51;23.20;99.90
2435;DHT22;1228;51.022;6.764;2023-07-31T13:51:16;23.50;99.90
2435;DHT22;1228;51.022;6.764;2023-07-31T13:53:42;23.90;99.90
2435;DHT22;1228;51.022;6.764;2023-07-31T13:56:07;24.60;99.90
2435;DHT22;1228;51.022;6.764;2023-07-31T13:58:33;24.90;99.90
2435;DHT22;1228;51.022;6.764;2023-07-31T14:00:59;24.90;99.90
2435;DHT22;1228;51.022;6.764;2023-07-31T14:03:24;24.90;99.90
2435;DHT22;1228;51.022;6.764;2023-07-31T14:05:52;24.90;99.90
2435;DHT22;1228;51.022;6.764;2023-07-31T14:08:17;24.90;99.90
2435;DHT22;1228;51.022;6.764;2023-07-31T14:10:43;24.60;99.90
2435;DHT22;1228;51.022;6.764;2023-07-31T14:13:08;24.30;99.90
2435;DHT22;1228;51.022;6.764;2023-07-31T14:15:34;23.90;99.90
2435;DHT22;1228;51.022;6.764;2023-07-31T14:18:01;23.50;99.90
2435;DHT22;1228;51.022;6.764;2023-07-31T14:20:27;23.20;99.90
2435;DHT22;1228;51.022;6.764;2023-07-31T14:22:53;22.90;99.90
2435;DHT22;1228;51.022;6.764;2023-07-31T14:25:19;22.60;99.90
2435;DHT22;1228;51.022;6.764;2023-07-31T14:27:45;22.50;99.90
2435;DHT22;1228;51.022;6.764;2023-07-31T14:30:11;22.40;99.90
2435;DHT22;1228;51.022;6.764;2023-07-31T14:32:36;22.40;99.90
2435;DHT22;1228;51.022;6.764;2023-07-31T14:35:03;22.50;99.90
2435;DHT22;1228;51.022;6.764;2023-07-31T14:37:43;22.50;99.90
2435;DHT22;1228;51.022;6.764;2023-07-31T14:40:10;22.60;99.90
2435;DHT22;1228;51.022;6.764;2023-07-31T14:42:37;22.80;99.90
2435;DHT22;1228;51.022;6.764;2023-07-31T14:45:06;23.00;99.90
2435;DHT22;1228;51.022;6.764;2023-07-31T14:47:33;23.10;99.90
2435;DHT22;1228;51.022;6.764;2023-07-31T14:49:59;23.20;99.90
2435;DHT22;1228;51.022;6.764;2023-07-31T14:52:25;23.10;99.90
2435;DHT22;1228;51.022;6.764;2023-07-31T14:54:51;23.20;99.90
2435;DHT22;1228;51.022;6.764;2023-07-31T14:57:17;23.10;99.90
2435;DHT22;1228;51.022;6.764;2023-07-31T14:59:43;23.00;99.90
2435;DHT22;1228;51.022;6.764;2023-07-31T15:02:09;22.90;99.90
2435;DHT22;1228;51.022;6.764;2023-07-31T15:04:35;22.70;99.90
2435;DHT22;1228;51.022;6.764;2023-07-31T15:07:01;22.60;99.90
2435;DHT22;1228;51.022;6.764;2023-07-31T15:09:27;22.40;99.90
2435;DHT22;1228;51.022;6.764;2023-07-31T15:11:53;22.20;99.90
2435;DHT22;1228;51.022;6.764;2023-07-31T15:14:18;22.20;99.90
2435;DHT22;1228;51.022;6.764;2023-07-31T15:16:44;22.30;99.90
2435;DHT22;1228;51.022;6.764;2023-07-31T15:19:10;22.30;99.90
2435;DHT22;1228;51.022;6.764;2023-07-31T15:21:36;22.20;99.90
2435;DHT22;1228;51.022;6.764;2023-07-31T15:24:02;22.10;99.90
2435;DHT22;1228;51.022;6.764;2023-07-31T15:26:28;22.00;99.90
2435;DHT22;1228;51.022;6.764;2023-07-31T15:29:04;21.80;99.90
2435;DHT22;1228;51.022;6.764;2023-07-31T15:31:34;21.60;99.90
2435;DHT22;1228;51.022;6.764;2023-07-31T15:34:00;21.60;99.90
2435;DHT22;1228;51.022;6.764;2023-07-31T15:36:26;21.50;99.90
2435;DHT22;1228;51.022;6.764;2023-07-31T15:38:51;21.40;99.90
2435;DHT22;1228;51.022;6.764;2023-07-31T15:41:18;21.40;99.90
2435;DHT22;1228;51.022;6.764;2023-07-31T15:43:44;21.40;99.90
2435;DHT22;1228;51.022;6.764;2023-07-31T15:46:10;21.30;99.90
2435;DHT22;1228;51.022;6.764;2023-07-31T15:48:35;21.30;99.90
2435;DHT22;1228;51.022;6.764;2023-07-31T15:51:01;21.30;99.90
2435;DHT22;1228;51.022;6.764;2023-07-31T15:53:29;21.10;99.90
2435;DHT22;1228;51.022;6.764;2023-07-31T15:55:54;20.90;99.90
2435;DHT22;1228;51.022;6.764;2023-07-31T15:58:20;20.50;99.90
2435;DHT22;1228;51.022;6.764;2023-07-31T16:00:46;20.10;99.90
2435;DHT22;1228;51.022;6.764;2023-07-31T16:03:11;19.70;99.90
2435;DHT22;1228;51.022;6.764;2023-07-31T16:05:37;19.50;99.90
2435;DHT22;1228;51.022;6.764;2023-07-31T16:08:03;19.20;99.90
2435;DHT22;1228;51.022;6.764;2023-07-31T16:10:28;19.10;99.90